SSR weather

Sara Airport
Pentecost Island, Penama, Vanuatu

Public forecast

Using degrees Celsius for public forecast. Weather courtesy of forecast.io.

METAR (pilot weather report)

Report is more than 6 hours old.

Closest report is Longana Airport, 14.6 nm (27.0 km) NW. Retrieved 2019/06/01 21:00 UTC (15 days ago):

NVSG 012100Z NI

TAF (pilot weather forecast)

Closest forecast is Longana Airport, 14.6 nm (27.0 km) NW. Retrieved 2019/06/16 18:04 UTC (46 minutes ago):

TAF NVSG 161600Z 1618/1718 12010G20KT 9999 SCT020 BKN040 PROB30 INTER 1618/1624 9000 -SHRA BKN018